Terminal Aerodrome Forecast
Issued by NWS Charleston, WV

Current Version | Previous Version | Text Only | Print | Product List | Glossary Off
Versions: 1 2 3 4 5 6 7 8 9 10 11 12 13 14 15 16 17 18 19 20 21 22

000
FTUS41 KRLX 161500 AAA
TAFPKB
TAF AMD
KPKB 161507Z 1615/1712 14011G18KT 5SM SHRA OVC035
     FM162300 16008KT 6SM -SHRA OVC045
     FM170200 17008KT P6SM OVC035
     FM170800 18005KT P6SM BKN025
     FM171100 VRB03KT P6SM BKN020=

USA.gov is the U.S. government's official web portal to all federal, state and local government web resources and services.